EGDY METAR and TAF | Updated Today

EGDY METAR

RNAS Yeovilton

Observation time: 27 min. ago

EGDY 051950Z AUTO 09002KT 9000 BR SCT220/// 01/M01 Q1046

Need help? Read our tutorial on how to read METARs or read the parsed version below.

RNAS Yeovilton (EGDY) METAR

  • Weather conditions on Sun, 05 Feb 2023 19:50:00 +0000 (27 min. ago):
  • Present conditions: Mist
  • Clouds: Scattered at 6706 meters
  • Visibility: 9000 meters
  • Wind: 90 degrees at 2 knots
  • Temperature: 1 celsius
  • Dew point: -1 celsius
  • Pressure: 1046 millibars
  • Remarks: None


Useful to know...